BFS weather

Belfast International Airport
Belfast, Northern Ireland, United Kingdom

Public forecast

Using degrees Celsius for public forecast. Weather courtesy of forecast.io.

METAR (pilot weather report)

Retrieved 2019/03/23 09:50 UTC (19 minutes ago):

EGAA 230950Z 24010KT 9999 FEW020 06/03 Q1033

TAF (pilot weather forecast)

Forecast is more than 12 hours old.

Retrieved 2019/03/22 18:15 UTC (16 hours ago):

TAF TAF EGAA 221657Z 2218/2318 26010KT 9999 FEW030